Time;durP1;ratioP1;P1;durP2;ratioP2;P2;SDS_P1;SDS_P2;PMS_P1;PMS_P2;Temp;Humidity;BMP_temperature;BMP_pressure;BME280_temperature;BME280_humidity;BME280_pressure;Samples;Min_cycle;Max_cycle;Signal;HPM_P1;HPM_P2
2022/07/06 00:00:32;;;;;;;2.28;2.08;;;13.50;99.90;;;;;;4942083;28;90360;-39
2022/07/06 00:02:57;;;;;;;2.35;1.95;;;13.50;99.90;;;;;;4964393;22;89559;-35
2022/07/06 00:05:23;;;;;;;2.45;2.25;;;13.50;99.90;;;;;;4922509;28;87917;-32
2022/07/06 00:07:48;;;;;;;6.07;2.33;;;13.50;99.90;;;;;;4922588;28;90111;-29
2022/07/06 00:10:14;;;;;;;2.92;2.50;;;13.50;99.90;;;;;;4922404;28;89217;-31
2022/07/06 00:12:40;;;;;;;8.02;3.33;;;13.50;99.90;;;;;;4922346;28;88047;-31
2022/07/06 00:15:05;;;;;;;2.72;2.45;;;13.60;99.90;;;;;;4923107;28;87454;-30
2022/07/06 00:17:31;;;;;;;2.83;2.17;;;13.60;99.90;;;;;;4920792;28;88284;-33
2022/07/06 00:19:56;;;;;;;6.53;2.58;;;13.60;99.90;;;;;;4921660;28;89074;-34
2022/07/06 00:22:22;;;;;;;3.97;2.15;;;13.60;99.90;;;;;;4922051;28;90714;-30
2022/07/06 00:24:48;;;;;;;3.90;2.22;;;13.60;99.90;;;;;;4922766;28;89507;-32
2022/07/06 00:27:13;;;;;;;4.70;2.55;;;13.50;99.90;;;;;;4922925;28;88316;-30
2022/07/06 00:29:43;;;;;;;1.90;1.67;;;13.60;99.90;;;;;;4921526;28;90178;-32
2022/07/06 00:32:12;;;;;;;2.08;1.85;;;13.60;99.90;;;;;;4921014;28;88923;-31
2022/07/06 00:34:41;;;;;;;8.30;2.60;;;13.60;99.90;;;;;;4921682;28;87903;-31
2022/07/06 00:37:07;;;;;;;3.25;2.65;;;13.60;99.90;;;;;;4921940;28;88149;-30
2022/07/06 00:39:33;;;;;;;2.65;1.88;;;13.60;99.90;;;;;;4922298;28;90546;-30
2022/07/06 00:41:59;;;;;;;5.78;2.42;;;13.60;99.90;;;;;;4921861;28;89466;-32
2022/07/06 00:44:25;;;;;;;2.47;2.28;;;13.60;99.90;;;;;;4921852;28;89935;-34
2022/07/06 00:46:50;;;;;;;4.00;2.28;;;13.70;99.90;;;;;;4922859;28;89929;-30
2022/07/06 00:52:01;;;;;;;2.67;2.15;;;13.60;99.90;;;;;;4909263;28;89559;-30
2022/07/06 00:54:30;;;;;;;12.57;2.42;;;13.70;99.90;;;;;;4921668;28;88101;-34
2022/07/06 00:56:55;;;;;;;6.00;2.95;;;13.70;99.90;;;;;;4921606;28;89230;-31
2022/07/06 00:59:21;;;;;;;4.00;2.63;;;13.70;99.90;;;;;;4921820;28;90322;-35
2022/07/06 01:01:47;;;;;;;3.40;1.85;;;13.70;99.90;;;;;;4922200;28;91545;-30
2022/07/06 01:04:13;;;;;;;5.55;1.92;;;13.70;99.90;;;;;;4921268;28;89920;-32
2022/07/06 01:06:38;;;;;;;5.90;2.08;;;13.60;99.90;;;;;;4922240;28;87557;-34
2022/07/06 01:09:05;;;;;;;6.10;2.20;;;13.70;99.90;;;;;;4921074;28;90359;-34
2022/07/06 01:11:31;;;;;;;3.20;2.25;;;13.60;99.90;;;;;;4921552;28;90798;-34
2022/07/06 01:13:57;;;;;;;4.55;2.67;;;13.60;99.90;;;;;;4921887;28;90139;-32
2022/07/06 01:16:23;;;;;;;3.05;2.42;;;13.60;99.90;;;;;;4921819;28;88522;-32
2022/07/06 01:18:48;;;;;;;6.47;2.30;;;13.60;99.90;;;;;;4921524;28;90183;-30
2022/07/06 01:21:15;;;;;;;6.40;2.33;;;13.60;99.90;;;;;;4920370;28;89855;-30
2022/07/06 01:23:42;;;;;;;2.53;2.35;;;13.60;99.90;;;;;;4921729;28;88759;-31
2022/07/06 01:26:18;;;;;;;2.50;2.27;;;13.50;99.90;;;;;;4922087;28;88663;-30
2022/07/06 01:28:44;;;;;;;3.35;2.47;;;13.60;99.90;;;;;;4921371;28;89585;-30
2022/07/06 01:31:15;;;;;;;3.47;1.90;;;13.50;99.90;;;;;;4920688;28;89717;-34
2022/07/06 01:33:40;;;;;;;3.65;2.47;;;13.50;99.90;;;;;;4921236;28;88850;-30
2022/07/06 01:36:06;;;;;;;1.98;1.88;;;13.50;99.90;;;;;;4921967;28;87828;-32
2022/07/06 01:38:31;;;;;;;2.58;2.25;;;13.50;99.90;;;;;;4921057;28;90160;-31
2022/07/06 01:40:57;;;;;;;5.78;2.92;;;13.50;99.90;;;;;;4921666;28;89369;-37
2022/07/06 01:43:23;;;;;;;3.55;2.15;;;13.50;99.90;;;;;;4921193;28;88315;-31
2022/07/06 01:45:48;;;;;;;3.45;2.63;;;13.50;99.90;;;;;;4921513;28;88895;-30
2022/07/06 01:48:14;;;;;;;3.75;2.17;;;13.40;99.90;;;;;;4921489;28;90216;-31
2022/07/06 01:50:39;;;;;;;5.90;2.13;;;13.50;99.90;;;;;;4920738;28;89523;-31
2022/07/06 01:53:05;;;;;;;2.83;2.20;;;13.40;99.90;;;;;;4921513;28;87572;-32
2022/07/06 01:55:30;;;;;;;3.17;2.42;;;13.50;99.90;;;;;;4921352;28;88704;-34
2022/07/06 01:57:56;;;;;;;6.68;2.42;;;13.50;99.90;;;;;;4921053;28;89077;-33
2022/07/06 02:00:22;;;;;;;3.45;2.33;;;13.40;99.90;;;;;;4920875;28;89861;-33
2022/07/06 02:02:47;;;;;;;5.65;2.70;;;13.50;99.90;;;;;;4921454;28;89560;-32
2022/07/06 02:05:13;;;;;;;3.47;2.10;;;13.40;99.90;;;;;;4924068;28;87959;-31
2022/07/06 02:07:38;;;;;;;5.72;2.08;;;13.40;99.90;;;;;;4924049;28;90395;-32
2022/07/06 02:10:04;;;;;;;5.47;2.33;;;13.40;99.90;;;;;;4923664;28;89608;-33
2022/07/06 02:12:30;;;;;;;6.28;2.55;;;13.40;99.90;;;;;;4924407;28;87617;-31
2022/07/06 02:14:55;;;;;;;6.32;2.28;;;13.40;99.90;;;;;;4924929;28;88373;-30
2022/07/06 02:17:21;;;;;;;4.80;2.38;;;13.40;99.90;;;;;;4924236;28;92049;-32
2022/07/06 02:19:46;;;;;;;5.55;2.65;;;13.40;99.90;;;;;;4924113;28;89958;-33
2022/07/06 02:22:12;;;;;;;4.82;2.55;;;13.40;99.90;;;;;;4923721;28;89287;-29
2022/07/06 02:24:37;;;;;;;2.45;2.22;;;13.40;99.90;;;;;;4924278;28;88848;-31
2022/07/06 02:27:03;;;;;;;5.65;2.47;;;13.30;99.90;;;;;;4924280;28;89053;-31
2022/07/06 02:29:29;;;;;;;3.95;1.98;;;13.40;99.90;;;;;;4923372;28;89678;-31
2022/07/06 02:31:54;;;;;;;4.40;1.90;;;13.40;99.90;;;;;;4924735;28;89401;-33
2022/07/06 02:34:20;;;;;;;2.65;2.22;;;13.40;99.90;;;;;;4923272;28;88247;-33
2022/07/06 02:36:45;;;;;;;3.78;2.83;;;13.30;99.90;;;;;;4924096;28;90067;-32
2022/07/06 02:39:11;;;;;;;2.40;2.15;;;13.40;99.90;;;;;;4923891;28;89885;-32
2022/07/06 02:41:36;;;;;;;8.93;3.08;;;13.30;99.90;;;;;;4923459;28;89060;-34
2022/07/06 02:44:02;;;;;;;6.32;2.60;;;13.30;99.90;;;;;;4923947;28;88371;-33
2022/07/06 02:46:28;;;;;;;6.07;2.45;;;13.30;99.90;;;;;;4923598;28;90287;-30
2022/07/06 02:48:53;;;;;;;7.28;1.80;;;13.30;99.90;;;;;;4924221;28;90266;-32
2022/07/06 02:51:19;;;;;;;4.95;2.95;;;13.30;99.90;;;;;;4923681;28;87608;-33
2022/07/06 02:53:44;;;;;;;3.75;2.03;;;13.30;99.90;;;;;;4924230;28;89300;-34
2022/07/06 02:56:10;;;;;;;4.70;2.67;;;13.40;99.90;;;;;;4923261;28;89832;-32
2022/07/06 02:58:35;;;;;;;2.88;1.77;;;13.40;99.90;;;;;;4923381;28;90088;-33
2022/07/06 03:01:01;;;;;;;6.60;2.15;;;13.30;99.90;;;;;;4923631;28;89140;-31
2022/07/06 03:03:27;;;;;;;7.00;1.63;;;13.40;99.90;;;;;;4923035;28;89364;-32
2022/07/06 03:05:52;;;;;;;2.65;1.90;;;13.40;99.90;;;;;;4923546;28;90068;-30
2022/07/06 03:08:18;;;;;;;3.85;2.00;;;13.40;99.90;;;;;;4922435;28;89480;-30
2022/07/06 03:10:43;;;;;;;2.03;1.83;;;13.40;99.90;;;;;;4924019;28;88605;-34
2022/07/06 03:13:09;;;;;;;2.63;1.95;;;13.40;99.90;;;;;;4923369;28;89910;-31
2022/07/06 03:15:35;;;;;;;2.45;2.00;;;13.40;99.90;;;;;;4923430;28;90331;-34
2022/07/06 03:18:00;;;;;;;4.75;2.97;;;13.40;99.90;;;;;;4923032;28;89262;-30
2022/07/06 03:20:26;;;;;;;6.38;2.53;;;13.40;99.90;;;;;;4923089;28;89963;-30
2022/07/06 03:22:51;;;;;;;2.53;1.80;;;13.40;99.90;;;;;;4923534;28;88960;-33
2022/07/06 03:25:17;;;;;;;4.30;2.20;;;13.40;99.90;;;;;;4923033;28;90231;-31
2022/07/06 03:27:42;;;;;;;2.33;2.17;;;13.40;99.90;;;;;;4923571;28;88202;-34
2022/07/06 03:30:08;;;;;;;3.45;2.42;;;13.50;99.90;;;;;;4922683;28;87629;-30
2022/07/06 03:32:34;;;;;;;5.70;1.67;;;13.50;99.90;;;;;;4923155;28;89396;-33
2022/07/06 03:34:59;;;;;;;2.33;1.85;;;13.40;99.90;;;;;;4923349;28;90078;-31
2022/07/06 03:37:25;;;;;;;5.18;1.65;;;13.50;99.90;;;;;;4922826;28;89525;-31
2022/07/06 03:39:51;;;;;;;3.00;2.17;;;13.40;99.90;;;;;;4923592;28;87617;-30
2022/07/06 03:42:16;;;;;;;2.33;2.15;;;13.50;99.90;;;;;;4922678;28;89737;-30
2022/07/06 03:44:42;;;;;;;5.97;2.67;;;13.50;99.90;;;;;;4922643;28;90172;-29
2022/07/06 03:47:07;;;;;;;3.65;2.38;;;13.40;99.90;;;;;;4923166;28;89515;-31
2022/07/06 03:49:33;;;;;;;7.50;1.88;;;13.40;99.90;;;;;;4923395;28;88105;-30
2022/07/06 03:51:58;;;;;;;3.28;2.28;;;13.50;99.90;;;;;;4923533;28;89861;-33
2022/07/06 03:54:24;;;;;;;2.53;2.17;;;13.50;99.90;;;;;;4922257;28;90111;-30
2022/07/06 03:56:50;;;;;;;5.95;2.50;;;13.50;99.90;;;;;;4922981;28;89395;-29
2022/07/06 03:59:15;;;;;;;5.25;1.98;;;13.50;99.90;;;;;;4922273;28;87597;-32
2022/07/06 04:01:41;;;;;;;2.22;1.50;;;13.50;99.90;;;;;;4922773;28;90103;-30
2022/07/06 04:04:06;;;;;;;13.90;2.90;;;13.50;99.90;;;;;;4922296;28;89262;-29
2022/07/06 04:06:34;;;;;;;2.45;2.13;;;13.60;99.90;;;;;;4923193;28;89714;-31
2022/07/06 04:09:00;;;;;;;1.53;1.43;;;13.60;99.90;;;;;;4922848;28;89506;-33
2022/07/06 04:11:25;;;;;;;3.45;2.28;;;13.60;99.90;;;;;;4921580;28;87648;-31
2022/07/06 04:13:51;;;;;;;3.22;1.85;;;13.70;99.90;;;;;;4922142;28;90353;-34
2022/07/06 04:16:16;;;;;;;2.83;2.28;;;13.70;99.90;;;;;;4922393;28;89824;-32
2022/07/06 04:18:42;;;;;;;2.35;1.70;;;13.80;99.90;;;;;;4922823;28;88368;-32
2022/07/06 04:21:08;;;;;;;2.63;1.85;;;13.80;99.90;;;;;;4922596;28;89586;-30
2022/07/06 04:23:33;;;;;;;4.90;1.77;;;13.90;99.90;;;;;;4921777;28;90559;-29
2022/07/06 04:25:59;;;;;;;2.08;1.45;;;14.00;99.90;;;;;;4921594;28;90298;-33
2022/07/06 04:28:24;;;;;;;1.70;1.40;;;14.10;99.90;;;;;;4922127;28;87869;-30
2022/07/06 04:30:50;;;;;;;5.22;2.20;;;14.10;99.90;;;;;;4922212;28;88843;-34
2022/07/06 04:33:16;;;;;;;2.10;1.85;;;14.20;99.90;;;;;;4921692;28;89298;-31
2022/07/06 04:35:41;;;;;;;56.78;10.18;;;14.30;99.90;;;;;;4921153;28;89814;-33
2022/07/06 04:38:07;;;;;;;31.08;4.95;;;14.50;99.90;;;;;;4920876;28;89341;-34
2022/07/06 04:40:32;;;;;;;19.38;3.90;;;14.70;99.90;;;;;;4922325;28;87753;-30
2022/07/06 04:42:59;;;;;;;1.92;1.73;;;14.80;99.90;;;;;;4922463;28;90180;-33
2022/07/06 04:45:25;;;;;;;2.90;1.63;;;15.00;99.90;;;;;;4921565;28;89587;-30
2022/07/06 04:47:50;;;;;;;2.08;1.70;;;15.10;99.90;;;;;;4921590;28;89957;-34
2022/07/06 04:50:16;;;;;;;3.03;1.88;;;15.30;99.90;;;;;;4922519;28;89473;-31
2022/07/06 04:52:42;;;;;;;6.00;2.25;;;15.40;99.90;;;;;;4921862;28;90070;-29
2022/07/06 04:55:08;;;;;;;11.18;2.28;;;15.60;99.90;;;;;;4922597;28;90777;-33
2022/07/06 04:57:34;;;;;;;5.28;1.70;;;15.70;99.90;;;;;;4922191;28;90075;-31
2022/07/06 05:00:00;;;;;;;4.85;2.13;;;15.90;99.90;;;;;;4921194;28;87873;-33
2022/07/06 05:02:26;;;;;;;3.40;2.08;;;16.10;99.90;;;;;;4920244;28;89068;-31
2022/07/06 05:04:52;;;;;;;2.60;1.33;;;16.30;99.90;;;;;;4921082;28;89864;-33
2022/07/06 05:07:18;;;;;;;4.07;2.00;;;16.50;99.90;;;;;;4922382;28;87980;-30
2022/07/06 05:09:43;;;;;;;3.25;1.77;;;16.70;99.90;;;;;;4921898;28;89562;-32
2022/07/06 05:12:10;;;;;;;9.50;2.17;;;16.80;99.90;;;;;;4921092;28;90400;-34
2022/07/06 05:14:36;;;;;;;12.35;2.47;;;16.80;99.90;;;;;;4921286;28;89299;-33
2022/07/06 05:17:02;;;;;;;1.55;1.23;;;16.90;99.90;;;;;;4921742;28;90255;-31
2022/07/06 05:19:27;;;;;;;1.92;1.10;;;17.00;99.90;;;;;;4920774;28;88299;-33
2022/07/06 05:21:53;;;;;;;22.17;3.67;;;17.10;99.90;;;;;;4921726;28;90292;-32
2022/07/06 05:24:19;;;;;;;8.18;1.90;;;17.20;99.90;;;;;;4921340;28;89909;-33
2022/07/06 05:26:45;;;;;;;6.32;1.60;;;17.30;99.90;;;;;;4922132;28;89361;-33
2022/07/06 05:29:10;;;;;;;4.22;2.00;;;17.30;99.90;;;;;;4922003;28;90103;-31
2022/07/06 05:31:36;;;;;;;3.38;1.42;;;17.40;99.90;;;;;;4921851;28;90277;-31
2022/07/06 05:34:02;;;;;;;3.75;1.27;;;17.50;99.90;;;;;;4920920;28;89853;-31
2022/07/06 05:36:28;;;;;;;4.82;1.98;;;17.40;99.90;;;;;;4921680;28;89987;-34
2022/07/06 05:38:53;;;;;;;1.63;1.05;;;17.30;99.90;;;;;;4923231;28;87749;-31
2022/07/06 05:41:19;;;;;;;1.65;1.27;;;17.10;99.90;;;;;;4924248;28;90012;-31
2022/07/06 05:43:44;;;;;;;6.85;2.13;;;17.00;99.90;;;;;;4925284;28;89394;-32
2022/07/06 05:46:10;;;;;;;5.90;1.48;;;16.80;99.90;;;;;;4924218;28;89137;-30
2022/07/06 05:51:20;;;;;;;3.90;1.27;;;16.60;99.90;;;;;;4925034;28;90278;-30
2022/07/06 05:53:47;;;;;;;2.08;1.48;;;16.60;99.90;;;;;;4925514;28;89705;-34
2022/07/06 05:56:12;;;;;;;3.58;1.13;;;16.50;99.90;;;;;;4924668;28;89362;-31
2022/07/06 05:58:38;;;;;;;3.50;1.27;;;16.50;99.90;;;;;;4906971;28;90199;-31
2022/07/06 06:01:03;;;;;;;3.60;1.13;;;16.50;99.90;;;;;;4924627;28;90290;-31
2022/07/06 06:03:29;;;;;;;2.15;1.10;;;16.50;99.90;;;;;;4924017;28;89274;-33
2022/07/06 06:05:54;;;;;;;1.80;0.80;;;16.40;99.90;;;;;;4925187;28;87880;-32
2022/07/06 06:08:20;;;;;;;3.20;1.50;;;16.40;99.90;;;;;;4925097;28;89362;-31
2022/07/06 06:10:46;;;;;;;1.20;1.00;;;16.30;99.90;;;;;;4923825;28;90347;-31
2022/07/06 06:13:11;;;;;;;2.30;1.13;;;16.30;99.90;;;;;;4923686;28;89450;-34
2022/07/06 06:15:37;;;;;;;2.45;1.52;;;16.20;99.90;;;;;;4923897;28;88171;-33
2022/07/06 06:18:03;;;;;;;10.75;2.15;;;16.30;99.90;;;;;;4925054;28;90294;-30
2022/07/06 06:20:29;;;;;;;3.53;1.45;;;16.30;99.90;;;;;;4924548;28;91491;-32
2022/07/06 06:22:57;;;;;;;6.32;1.25;;;16.40;99.90;;;;;;4923630;28;89709;-33
2022/07/06 06:25:34;;;;;;;4.07;0.80;;;16.40;99.90;;;;;;4924576;28;90389;-34
2022/07/06 06:28:01;;;;;;;1.73;1.08;;;16.50;99.90;;;;;;4924996;28;89134;-32
2022/07/06 06:30:27;;;;;;;1.50;1.27;;;16.50;99.90;;;;;;4924562;28;90809;-30
2022/07/06 06:33:09;;;;;;;10.13;3.15;;;16.50;99.90;;;;;;4924037;28;89730;-30
2022/07/06 06:35:37;;;;;;;4.18;1.80;;;16.50;99.90;;;;;;4923931;28;88762;-32
2022/07/06 06:38:03;;;;;;;7.22;1.45;;;16.50;99.90;;;;;;4923958;28;89344;-31
2022/07/06 06:40:28;;;;;;;5.47;1.38;;;16.50;99.90;;;;;;4924608;28;90324;-33
2022/07/06 06:42:54;;;;;;;6.97;1.70;;;16.50;99.90;;;;;;4923704;28;89514;-35
2022/07/06 06:45:19;;;;;;;6.88;2.08;;;16.50;99.90;;;;;;4923208;28;90141;-35
2022/07/06 06:47:45;;;;;;;2.22;1.00;;;16.30;99.90;;;;;;4922606;28;88917;-32
2022/07/06 06:50:10;;;;;;;4.10;1.20;;;16.30;99.90;;;;;;4926814;28;89462;-34
2022/07/06 06:52:36;;;;;;;2.05;1.10;;;16.30;99.90;;;;;;4913340;28;88661;-31
2022/07/06 06:55:02;;;;;;;1.90;0.65;;;16.20;99.90;;;;;;4941431;28;89702;-31
2022/07/06 06:57:28;;;;;;;3.63;1.60;;;16.20;99.90;;;;;;4932361;28;88562;-34
2022/07/06 06:59:54;;;;;;;2.80;1.27;;;16.10;99.90;;;;;;4922175;28;90432;-30
2022/07/06 07:02:20;;;;;;;4.20;0.88;;;16.10;99.90;;;;;;4922063;28;89557;-34
2022/07/06 07:04:45;;;;;;;7.95;1.40;;;16.20;99.90;;;;;;4937212;28;90409;-31
2022/07/06 07:07:11;;;;;;;1.90;1.13;;;16.20;99.90;;;;;;4927471;28;88603;-33
2022/07/06 07:09:37;;;;;;;2.63;1.30;;;16.20;99.90;;;;;;4923294;28;89994;-32
2022/07/06 07:12:03;;;;;;;4.65;1.15;;;16.30;99.90;;;;;;4921044;28;89468;-32
2022/07/06 07:14:28;;;;;;;3.50;1.27;;;16.30;99.90;;;;;;4920920;28;87982;-35
2022/07/06 07:16:54;;;;;;;1.40;0.77;;;16.30;99.90;;;;;;4921594;28;89033;-32
2022/07/06 07:19:19;;;;;;;7.15;1.65;;;16.40;99.90;;;;;;4921036;28;89949;-32
2022/07/06 07:21:45;;;;;;;0.93;0.80;;;16.50;99.90;;;;;;4921006;28;89654;-31
2022/07/06 07:24:10;;;;;;;5.38;1.63;;;16.50;99.90;;;;;;4924064;28;89994;-31
2022/07/06 07:26:36;;;;;;;2.88;1.00;;;16.60;99.90;;;;;;4922671;28;89378;-30
2022/07/06 07:29:02;;;;;;;2.58;1.02;;;16.80;99.90;;;;;;4920917;28;88850;-32
2022/07/06 07:31:27;;;;;;;2.28;0.90;;;16.80;99.90;;;;;;4920908;28;89150;-34
2022/07/06 07:33:56;;;;;;;3.03;1.00;;;16.80;99.90;;;;;;4921235;28;89091;-31
2022/07/06 07:36:23;;;;;;;2.72;0.85;;;16.80;99.90;;;;;;4921451;28;89828;-32
2022/07/06 07:38:49;;;;;;;3.38;1.10;;;16.80;99.90;;;;;;4920746;28;90125;-30
2022/07/06 07:41:16;;;;;;;4.22;1.23;;;16.70;99.90;;;;;;4920919;28;88694;-33
2022/07/06 07:43:42;;;;;;;2.58;0.82;;;16.60;99.90;;;;;;4921599;28;89711;-33
2022/07/06 07:46:08;;;;;;;3.80;0.70;;;16.50;99.90;;;;;;4920130;28;88600;-31
2022/07/06 07:48:33;;;;;;;2.90;1.33;;;16.50;99.90;;;;;;4921083;28;90557;-31
2022/07/06 07:50:59;;;;;;;1.50;0.90;;;16.50;99.90;;;;;;4919923;28;89038;-32
2022/07/06 07:53:24;;;;;;;0.95;0.93;;;16.50;99.90;;;;;;4921422;28;89421;-34
2022/07/06 07:55:50;;;;;;;3.97;0.98;;;16.50;99.90;;;;;;4921127;28;88738;-31
2022/07/06 07:58:15;;;;;;;4.85;1.30;;;16.60;99.90;;;;;;4920262;28;90304;-34
2022/07/06 08:00:41;;;;;;;2.08;1.05;;;16.70;99.90;;;;;;4917469;28;89637;-33
2022/07/06 08:03:06;;;;;;;1.55;1.30;;;16.70;99.90;;;;;;4918450;28;89549;-34
2022/07/06 08:05:32;;;;;;;2.55;1.65;;;16.80;99.90;;;;;;4921098;28;88883;-31
2022/07/06 08:07:58;;;;;;;3.35;1.38;;;17.00;99.90;;;;;;4919959;28;90167;-31
2022/07/06 08:10:23;;;;;;;0.70;0.60;;;17.30;99.90;;;;;;4920135;28;89429;-35
2022/07/06 08:12:49;;;;;;;1.13;1.02;;;17.80;99.90;;;;;;4907398;28;89490;-32
2022/07/06 08:15:15;;;;;;;5.22;1.73;;;18.20;99.90;;;;;;4919478;28;89771;-34
2022/07/06 08:17:40;;;;;;;2.85;1.00;;;18.60;99.90;;;;;;4919402;28;90773;-32
2022/07/06 08:20:07;;;;;;;2.17;1.02;;;18.80;99.90;;;;;;4919122;28;89695;-31
2022/07/06 08:22:35;;;;;;;7.18;1.50;;;19.00;99.90;;;;;;4920210;28;88446;-32
2022/07/06 08:25:01;;;;;;;0.95;0.90;;;19.20;99.90;;;;;;4919823;28;88007;-31
2022/07/06 08:27:27;;;;;;;7.97;1.30;;;19.40;99.90;;;;;;4918997;28;90216;-32
2022/07/06 08:29:52;;;;;;;1.42;0.65;;;19.60;99.90;;;;;;4919735;28;89827;-31
2022/07/06 08:32:19;;;;;;;7.50;2.13;;;19.70;99.90;;;;;;4920211;28;90168;-31
2022/07/06 08:34:45;;;;;;;4.32;0.98;;;19.60;99.90;;;;;;4919854;28;88627;-33
2022/07/06 08:37:11;;;;;;;2.15;0.98;;;19.60;99.90;;;;;;4918987;28;90698;-33
2022/07/06 08:39:37;;;;;;;7.88;1.15;;;19.60;99.90;;;;;;4918777;28;89030;-32
2022/07/06 08:42:03;;;;;;;0.98;0.82;;;19.50;99.90;;;;;;4920253;28;89041;-31
2022/07/06 08:44:29;;;;;;;8.38;1.30;;;19.20;99.90;;;;;;4920321;28;89668;-32
2022/07/06 08:46:57;;;;;;;1.08;0.88;;;19.00;99.90;;;;;;4919651;28;90603;-31
2022/07/06 08:49:24;;;;;;;2.78;1.13;;;18.70;99.90;;;;;;4919229;28;89582;-32
2022/07/06 08:51:51;;;;;;;1.55;0.82;;;18.40;99.90;;;;;;4919551;28;88651;-32
2022/07/06 08:54:19;;;;;;;3.25;1.17;;;18.20;99.90;;;;;;4919641;28;88260;-30
2022/07/06 08:56:45;;;;;;;1.95;0.95;;;18.00;99.90;;;;;;4919709;28;90569;-31
2022/07/06 08:59:11;;;;;;;1.60;1.00;;;18.00;99.90;;;;;;4918266;28;89883;-31
2022/07/06 09:01:38;;;;;;;2.05;1.02;;;17.90;99.90;;;;;;4919478;28;89235;-32
2022/07/06 09:04:06;;;;;;;2.47;1.05;;;17.60;99.90;;;;;;4919083;28;89564;-33
2022/07/06 09:06:34;;;;;;;3.47;1.13;;;17.60;99.90;;;;;;4919595;28;90335;-34
2022/07/06 09:09:03;;;;;;;6.78;0.95;;;17.50;99.90;;;;;;4920170;28;89881;-32
2022/07/06 09:11:28;;;;;;;1.85;0.68;;;17.60;99.90;;;;;;4919217;28;88113;-32
2022/07/06 09:13:54;;;;;;;1.13;0.90;;;17.60;99.90;;;;;;4921108;28;88194;-32
2022/07/06 09:16:27;;;;;;;2.45;1.13;;;17.70;99.90;;;;;;4922498;28;90423;-32
2022/07/06 09:18:52;;;;;;;0.80;0.80;;;18.10;99.90;;;;;;4922059;28;89757;-30
2022/07/06 09:21:27;;;;;;;1.88;0.68;;;18.30;99.90;;;;;;4922869;28;89170;-34
2022/07/06 09:23:58;;;;;;;1.00;0.85;;;18.50;99.90;;;;;;4922583;28;89064;-32
2022/07/06 09:26:25;;;;;;;0.98;0.50;;;18.80;99.90;;;;;;4922430;28;90826;-33
2022/07/06 09:28:51;;;;;;;3.83;0.85;;;19.10;99.90;;;;;;4922672;28;89700;-31
2022/07/06 09:31:17;;;;;;;1.85;0.43;;;19.50;99.90;;;;;;4922160;28;89595;-32
2022/07/06 09:34:09;;;;;;;1.17;0.57;;;19.70;99.90;;;;;;4922623;28;87932;-34
2022/07/06 09:36:38;;;;;;;1.23;0.57;;;20.00;99.90;;;;;;4922298;28;90782;-33
2022/07/06 09:39:20;;;;;;;1.08;0.50;;;20.20;99.90;;;;;;4921970;28;90274;-32
2022/07/06 09:41:47;;;;;;;1.33;1.05;;;20.40;99.90;;;;;;4921931;28;89488;-32
2022/07/06 09:44:38;;;;;;;3.65;0.95;;;20.50;99.90;;;;;;4922899;28;88458;-32
2022/07/06 09:47:06;;;;;;;1.48;0.60;;;20.50;99.90;;;;;;4921147;28;90712;-33
2022/07/06 09:49:32;;;;;;;7.70;1.35;;;20.50;99.90;;;;;;4921610;28;89737;-33
2022/07/06 09:52:00;;;;;;;5.50;1.08;;;20.60;99.90;;;;;;4922077;28;88763;-32
2022/07/06 09:54:25;;;;;;;1.20;0.67;;;20.50;99.90;;;;;;4922216;28;88756;-31
2022/07/06 09:56:52;;;;;;;1.65;1.05;;;20.60;99.90;;;;;;4922605;28;90216;-33
2022/07/06 09:59:21;;;;;;;5.47;1.00;;;20.70;99.90;;;;;;4921549;28;89572;-31
2022/07/06 10:01:49;;;;;;;1.98;0.90;;;21.00;99.90;;;;;;4920424;28;89177;-31
2022/07/06 10:04:18;;;;;;;0.77;0.73;;;21.30;99.90;;;;;;4921317;28;89005;-33
2022/07/06 10:06:44;;;;;;;0.95;0.60;;;21.40;99.90;;;;;;4921586;28;90209;-33
2022/07/06 10:09:11;;;;;;;2.20;0.77;;;21.40;99.90;;;;;;4921681;28;89788;-35
2022/07/06 10:11:43;;;;;;;5.15;1.55;;;21.20;99.90;;;;;;4922133;28;88299;-32
2022/07/06 10:14:11;;;;;;;0.57;0.57;;;21.00;99.90;;;;;;4922110;28;90572;-30
2022/07/06 10:16:38;;;;;;;1.52;0.73;;;20.70;99.90;;;;;;4922165;28;90209;-32
2022/07/06 10:19:08;;;;;;;2.38;1.00;;;20.60;99.90;;;;;;4920818;28;90350;-33
2022/07/06 10:21:38;;;;;;;1.40;0.60;;;20.70;99.90;;;;;;4904683;28;90189;-33
2022/07/06 10:24:05;;;;;;;2.70;0.60;;;20.80;99.90;;;;;;4921245;28;89209;-33
2022/07/06 10:26:33;;;;;;;2.47;1.10;;;20.80;95.90;;;;;;4920922;28;90130;-34
2022/07/06 10:29:00;;;;;;;1.33;0.55;;;20.50;99.90;;;;;;4921334;28;89314;-33
2022/07/06 10:31:28;;;;;;;3.50;0.70;;;20.30;99.90;;;;;;4922298;28;89801;-30
2022/07/06 10:33:55;;;;;;;1.80;0.63;;;20.10;99.90;;;;;;4922436;28;89951;-31
2022/07/06 10:36:21;;;;;;;3.33;1.25;;;20.00;99.90;;;;;;4921553;28;90057;-35
2022/07/06 10:38:51;;;;;;;2.60;0.77;;;19.90;99.90;;;;;;4921532;28;90091;-34
2022/07/06 10:41:18;;;;;;;0.98;0.70;;;19.80;99.90;;;;;;4921631;28;89294;-33
2022/07/06 10:43:48;;;;;;;2.20;1.17;;;19.70;99.90;;;;;;4922239;28;89509;-33
2022/07/06 10:46:20;;;;;;;1.85;0.88;;;19.70;99.90;;;;;;4921340;28;89688;-30
2022/07/06 10:48:47;;;;;;;4.05;0.98;;;19.90;99.90;;;;;;4921372;28;90332;-32
2022/07/06 10:51:26;;;;;;;1.42;0.93;;;20.20;99.90;;;;;;4921414;28;89235;-31
2022/07/06 10:54:03;;;;;;;0.60;0.50;;;20.40;99.90;;;;;;4924384;28;87685;-35
2022/07/06 10:56:40;;;;;;;3.30;0.60;;;20.70;99.90;;;;;;4923956;28;91166;-30
2022/07/06 10:59:17;;;;;;;0.98;0.60;;;20.80;99.90;;;;;;4922475;28;89983;-30
2022/07/06 11:02:22;;;;;;;5.10;0.70;;;21.00;99.90;;;;;;4923097;28;89461;-31
2022/07/06 11:04:48;;;;;;;0.85;0.60;;;21.00;96.60;;;;;;4924099;28;89706;-32
2022/07/06 11:07:16;;;;;;;0.70;0.60;;;20.80;99.40;;;;;;4923583;28;90489;-31
2022/07/06 11:09:53;;;;;;;5.72;1.02;;;20.80;99.90;;;;;;4923194;28;89105;-32
2022/07/06 11:12:20;;;;;;;0.95;0.70;;;20.90;99.90;;;;;;4923399;28;88780;-30
2022/07/06 11:14:47;;;;;;;2.33;0.82;;;20.90;96.30;;;;;;4924164;28;89416;-33
2022/07/06 11:17:13;;;;;;;0.55;0.50;;;20.80;98.30;;;;;;4924088;28;90087;-30
2022/07/06 11:19:55;;;;;;;2.25;1.20;;;20.80;99.90;;;;;;4923358;28;89457;-31
2022/07/06 11:22:24;;;;;;;0.93;0.43;;;20.80;99.90;;;;;;4923249;28;89072;-32
2022/07/06 11:24:51;;;;;;;2.80;0.70;;;20.80;99.90;;;;;;4923457;28;88241;-34
2022/07/06 11:27:17;;;;;;;3.03;1.38;;;20.70;99.90;;;;;;4922488;28;90385;-30
2022/07/06 11:29:44;;;;;;;1.90;0.52;;;20.70;99.90;;;;;;4923653;28;89738;-34
2022/07/06 11:32:11;;;;;;;2.97;1.02;;;20.70;99.90;;;;;;4923372;28;89580;-31
2022/07/06 11:34:43;;;;;;;1.98;0.75;;;20.70;99.90;;;;;;4923338;28;89540;-31
2022/07/06 11:37:11;;;;;;;5.85;0.90;;;20.90;99.90;;;;;;4921914;28;91666;-31
2022/07/06 11:39:41;;;;;;;2.47;1.17;;;20.90;99.90;;;;;;4923257;28;90338;-33
2022/07/06 11:42:12;;;;;;;1.15;0.95;;;20.70;99.90;;;;;;4922508;28;88400;-35
2022/07/06 11:44:39;;;;;;;5.20;0.60;;;20.70;99.90;;;;;;4923185;28;89257;-32
2022/07/06 11:47:06;;;;;;;1.23;1.05;;;20.70;99.90;;;;;;4922322;28;90246;-33
2022/07/06 11:49:34;;;;;;;0.80;0.80;;;20.70;99.90;;;;;;4921263;28;88334;-34
2022/07/06 11:52:00;;;;;;;16.77;2.33;;;20.90;99.90;;;;;;4920285;28;87567;-33
2022/07/06 11:54:26;;;;;;;2.40;1.10;;;21.10;99.90;;;;;;4927511;28;89919;-32
2022/07/06 11:56:59;;;;;;;4.32;0.88;;;21.10;99.90;;;;;;4931704;28;90270;-32
2022/07/06 11:59:29;;;;;;;1.98;0.93;;;21.10;99.90;;;;;;4929250;28;89559;-32
2022/07/06 12:02:03;;;;;;;1.73;0.70;;;21.20;99.90;;;;;;4964870;22;88995;-32
2022/07/06 12:04:34;;;;;;;5.93;2.05;;;21.50;99.90;;;;;;4907254;28;90597;-30
2022/07/06 12:07:02;;;;;;;5.70;1.25;;;21.90;99.90;;;;;;4910521;28;91228;-34
2022/07/06 12:09:36;;;;;;;1.67;0.68;;;22.00;90.40;;;;;;4912141;28;89712;-35
2022/07/06 12:12:03;;;;;;;9.13;1.40;;;21.90;89.80;;;;;;4910696;28;89869;-31
2022/07/06 12:14:34;;;;;;;0.88;0.80;;;21.60;91.00;;;;;;4912724;28;89644;-34
2022/07/06 12:17:08;;;;;;;2.72;1.38;;;21.30;96.90;;;;;;4908960;28;90879;-34
2022/07/06 12:19:36;;;;;;;1.85;1.17;;;21.20;98.40;;;;;;4912693;28;90199;-31
2022/07/06 12:22:02;;;;;;;0.73;0.60;;;21.00;98.50;;;;;;4908467;28;88974;-31
2022/07/06 12:24:32;;;;;;;4.10;0.98;;;20.80;99.60;;;;;;4913268;28;89451;-32
2022/07/06 12:27:09;;;;;;;3.97;1.10;;;20.70;99.90;;;;;;4902158;28;90305;-32
2022/07/06 12:29:34;;;;;;;5.72;1.00;;;20.90;99.90;;;;;;4901214;28;89559;-33
2022/07/06 12:32:01;;;;;;;3.55;1.45;;;21.10;99.90;;;;;;4900108;28;88584;-32
2022/07/06 12:34:34;;;;;;;0.73;0.70;;;21.10;99.00;;;;;;4900763;28;88458;-33
2022/07/06 12:37:05;;;;;;;3.13;0.90;;;20.90;99.90;;;;;;4900985;28;90713;-33
2022/07/06 12:39:31;;;;;;;1.77;0.90;;;20.80;99.90;;;;;;4900649;28;89687;-34
2022/07/06 12:42:03;;;;;;;1.10;1.00;;;20.70;99.90;;;;;;4901163;28;89860;-33
2022/07/06 12:44:29;;;;;;;2.20;0.70;;;20.70;99.90;;;;;;4900910;28;88742;-34
2022/07/06 12:47:06;;;;;;;13.20;1.77;;;20.60;99.90;;;;;;4899991;28;90300;-32
2022/07/06 12:49:33;;;;;;;3.70;1.50;;;20.70;99.90;;;;;;4899450;28;90241;-33